Terminal Aerodrome Forecast
Issued by NWS Cleveland, OH

Home | Current Version | Previous Version | Text Only | Print | Product List | Glossary Off
Versions: 1 2 3 4 5 6 7 8 9 10 11 12 13

000
FTUS41 KCLE 282300
TAFERI
TAF
KERI 282327Z 2900/2924 25015G25KT P6SM VCSH SCT025 OVC035
      TEMPO 2900/2901 BKN025 OVC035
     FM290200 25010KT P6SM SCT035 OVC180
     FM290900 24010KT P6SM BKN030
     FM291500 25015G25KT P6SM OVC030
     FM291900 26015G25KT P6SM OVC035=

USA.gov is the U.S. government's official web portal to all federal, state and local government web resources and services.